Portada
METAR-TAF:

METAR-TAF

Aeroports :

Reno-Tahoe International Airport

Reno, Nevada, Estats Units d'Amèrica

latitud: 39-29-02N, longitud: 119-46-16W, altitud: 1345 m

Observació

L'informe es va fer fa 56 minuts, a les 22:55 UTC
Vent 3 kt amb direcció variable
Temperatura 20°C
Humitat 10%
Pressió 1027 hPa
Visibilitat: 16.1 km
Cel clar

METAR: KRNO 262255Z VRB03KT 10SM CLR 20/M12 A3032 RMK AO2 SLP246 T02001117

Hora: 15:51 (23:51 UTC)

Pronòstic

L'informe es va fer fa 31 minuts, a les 23:20 UTC
Pronòstic vàlid del 27 a les 00 UTC al 27 a les 24 UTC
Vent 6 kt del Nord-Oest
Visibilitat: 10 km
Escasses núvols a una alçada de 20000 ft
A partir de les 27 a les 0300 UTC
Vent 3 kt amb direcció variable
Visibilitat: 10 km
Cel clar

TAF: KRNO 262320Z 2700/2724 32006KT P6SM FEW200 FM270300 VRB03KT P6SM SKC

Observacions i pronòstics meteorològics de més de 4000 aeroports (METAR i TAF).

Les estacions disponibles són els punts grocs i vermells al mapa.

Posi el ratolí al punt desitjat per veure el nom de l'estació.

Feu clic per veure les observacions i els pronòstics meteorològics.

Per canviar el mapa: feu clic els botons verds amb una creu de color negre per apropar; al botó verd amb un guió per allunyar la imatge; o en les fletxes verdes per a mapes adjacents.


METAR-TAF: